createdAt,value
2022-11-07T00:01:39.501Z,2.40
2022-11-07T00:04:06.301Z,2.30
2022-11-07T00:06:33.180Z,1.70
2022-11-07T00:08:59.910Z,1.90
2022-11-07T00:11:26.659Z,1.70
2022-11-07T00:13:53.959Z,1.70
2022-11-07T00:16:20.759Z,2.07
2022-11-07T00:18:47.662Z,1.90
2022-11-07T00:21:14.510Z,2.00
2022-11-07T00:23:42.029Z,1.90
2022-11-07T00:26:12.382Z,1.90
2022-11-07T00:28:41.625Z,1.90
2022-11-07T00:31:11.184Z,1.47
2022-11-07T00:33:38.316Z,2.50
2022-11-07T00:36:06.573Z,2.40
2022-11-07T00:38:33.328Z,1.93
2022-11-07T00:41:02.841Z,1.80
2022-11-07T00:43:30.387Z,1.67
2022-11-07T00:45:57.814Z,1.87
2022-11-07T00:48:24.743Z,2.00
2022-11-07T00:50:51.508Z,1.60
2022-11-07T00:53:18.292Z,1.70
2022-11-07T00:55:45.382Z,2.03
2022-11-07T00:58:14.093Z,1.80
2022-11-07T01:00:41.513Z,1.60
2022-11-07T01:03:27.076Z,1.70
2022-11-07T01:06:02.159Z,1.43
2022-11-07T01:08:29.314Z,1.63
2022-11-07T01:10:57.164Z,1.70
2022-11-07T01:13:24.138Z,1.70
2022-11-07T01:15:51.565Z,1.60
2022-11-07T01:18:18.436Z,1.80
2022-11-07T01:20:45.153Z,1.73
2022-11-07T01:23:12.157Z,2.23
2022-11-07T01:25:40.105Z,1.73
2022-11-07T01:28:08.513Z,1.83
2022-11-07T01:30:42.996Z,1.60
2022-11-07T01:33:10.799Z,1.80
2022-11-07T01:35:38.151Z,1.50
2022-11-07T01:38:05.473Z,1.73
2022-11-07T01:40:52.585Z,1.40
2022-11-07T01:43:19.606Z,1.40
2022-11-07T01:45:46.312Z,1.77
2022-11-07T01:48:16.149Z,1.90
2022-11-07T01:50:43.048Z,1.70
2022-11-07T01:53:09.961Z,2.00
2022-11-07T01:55:37.118Z,1.60
2022-11-07T01:58:06.598Z,1.70
2022-11-07T02:00:34.623Z,2.00
2022-11-07T02:03:09.120Z,1.80
2022-11-07T02:05:41.809Z,1.97
2022-11-07T02:08:10.095Z,1.90
2022-11-07T02:10:39.398Z,2.10
2022-11-07T02:13:07.817Z,2.30
2022-11-07T02:15:36.287Z,2.43
2022-11-07T02:18:03.496Z,1.90
2022-11-07T02:20:30.498Z,1.60
2022-11-07T02:23:02.375Z,2.00
2022-11-07T02:25:30.164Z,1.77
2022-11-07T02:28:01.149Z,1.60
2022-11-07T02:30:31.368Z,1.80
2022-11-07T02:32:58.269Z,2.20
2022-11-07T02:35:34.748Z,2.50
2022-11-07T02:38:03.163Z,1.93
2022-11-07T02:40:31.610Z,1.90
2022-11-07T02:43:00.135Z,1.63
2022-11-07T02:45:29.615Z,2.10
2022-11-07T02:47:56.378Z,1.80
2022-11-07T02:50:23.299Z,2.07
2022-11-07T02:52:50.075Z,1.83
2022-11-07T02:55:17.178Z,1.90
2022-11-07T02:57:43.990Z,1.87
2022-11-07T03:00:12.791Z,1.70
2022-11-07T03:02:40.443Z,2.10
2022-11-07T03:05:07.657Z,1.80
2022-11-07T03:07:34.449Z,1.90
2022-11-07T03:10:01.195Z,1.83
2022-11-07T03:12:27.939Z,1.80
2022-11-07T03:14:54.624Z,2.10
2022-11-07T03:17:21.416Z,2.40
2022-11-07T03:19:48.189Z,2.27
2022-11-07T03:22:14.983Z,2.00
2022-11-07T03:24:41.805Z,1.70
2022-11-07T03:27:11.755Z,1.83
2022-11-07T03:29:38.453Z,2.10
2022-11-07T03:32:05.483Z,2.00
2022-11-07T03:34:32.175Z,1.90
2022-11-07T03:36:58.895Z,1.73
2022-11-07T03:39:26.097Z,2.10
2022-11-07T03:41:55.284Z,1.83
2022-11-07T03:44:22.238Z,1.87
2022-11-07T03:46:48.964Z,1.73
2022-11-07T03:49:15.724Z,2.17
2022-11-07T03:51:42.431Z,2.00
2022-11-07T03:54:09.191Z,1.70
2022-11-07T03:56:36.124Z,1.80
2022-11-07T03:59:02.867Z,2.00
2022-11-07T04:01:29.694Z,2.13
2022-11-07T04:03:56.596Z,2.10
2022-11-07T04:06:23.505Z,2.10
2022-11-07T04:08:50.225Z,1.80
2022-11-07T04:11:35.705Z,1.87
2022-11-07T04:14:21.197Z,1.60
2022-11-07T04:17:06.540Z,1.80
2022-11-07T04:19:33.297Z,2.07
2022-11-07T04:21:59.940Z,1.90
2022-11-07T04:24:26.586Z,2.03
2022-11-07T04:27:11.707Z,2.03
2022-11-07T04:29:38.344Z,1.90
2022-11-07T04:32:05.136Z,1.83
2022-11-07T04:34:31.778Z,1.70
2022-11-07T04:36:58.420Z,2.30
2022-11-07T04:39:25.098Z,2.07
2022-11-07T04:41:51.742Z,2.00
2022-11-07T04:44:18.382Z,1.80
2022-11-07T04:46:45.044Z,1.93
2022-11-07T04:49:15.089Z,2.00
2022-11-07T04:51:43.229Z,1.70
2022-11-07T04:54:14.228Z,1.80
2022-11-07T04:56:41.630Z,1.50
2022-11-07T04:59:08.568Z,2.30
2022-11-07T05:01:35.273Z,2.13
2022-11-07T05:04:02.017Z,2.23
2022-11-07T05:06:29.214Z,2.10
2022-11-07T05:08:55.892Z,2.20
2022-11-07T05:11:22.598Z,2.10
2022-11-07T05:13:49.253Z,2.90
2022-11-07T05:16:19.588Z,2.13
2022-11-07T05:18:46.400Z,2.20
2022-11-07T05:21:13.143Z,2.53
2022-11-07T05:23:39.818Z,2.10
2022-11-07T05:26:06.513Z,2.23
2022-11-07T05:28:38.752Z,2.70
2022-11-07T05:31:08.003Z,2.20
2022-11-07T05:33:34.949Z,2.60
2022-11-07T05:36:13.072Z,2.50
2022-11-07T05:38:44.540Z,2.80
2022-11-07T05:41:12.945Z,2.67
2022-11-07T05:43:40.217Z,2.10
2022-11-07T05:46:07.365Z,1.90
2022-11-07T05:48:34.604Z,2.33
2022-11-07T05:51:01.507Z,2.60
2022-11-07T05:53:28.664Z,2.40
2022-11-07T05:55:56.968Z,2.20
2022-11-07T05:58:24.417Z,2.03
2022-11-07T06:00:51.206Z,2.23
2022-11-07T06:03:20.430Z,2.53
2022-11-07T06:05:47.489Z,2.60
2022-11-07T06:08:14.253Z,2.07
2022-11-07T06:10:42.700Z,2.30
2022-11-07T06:13:13.451Z,2.20
2022-11-07T06:15:41.199Z,2.63
2022-11-07T06:18:13.890Z,2.10
2022-11-07T06:20:40.745Z,3.37
2022-11-07T06:23:07.498Z,2.30
2022-11-07T06:25:35.278Z,2.70
2022-11-07T06:28:07.702Z,2.50
2022-11-07T06:30:35.638Z,2.83
2022-11-07T06:33:07.398Z,3.50
2022-11-07T06:35:34.700Z,2.33
2022-11-07T06:38:03.404Z,2.37
2022-11-07T06:40:30.465Z,2.43
2022-11-07T06:43:23.222Z,2.93
2022-11-07T06:45:50.099Z,3.20
2022-11-07T06:48:16.752Z,2.90
2022-11-07T06:50:43.444Z,2.97
2022-11-07T06:53:12.990Z,3.77
2022-11-07T06:55:40.094Z,3.90
2022-11-07T06:58:07.210Z,3.90
2022-11-07T07:00:35.831Z,4.00
2022-11-07T07:03:02.967Z,4.00
2022-11-07T07:05:29.917Z,4.47
2022-11-07T07:07:56.633Z,4.50
2022-11-07T07:10:25.100Z,4.43
2022-11-07T07:12:53.172Z,3.97
2022-11-07T07:15:20.006Z,4.43
2022-11-07T07:17:46.667Z,4.63
2022-11-07T07:20:13.416Z,5.07
2022-11-07T07:22:40.550Z,5.53
2022-11-07T07:25:08.029Z,4.43
2022-11-07T07:27:34.711Z,4.90
2022-11-07T07:30:01.489Z,5.20
2022-11-07T07:32:28.191Z,5.70
2022-11-07T07:34:54.890Z,4.73
2022-11-07T07:37:21.691Z,4.33
2022-11-07T07:39:48.478Z,4.27
2022-11-07T07:42:15.193Z,5.30
2022-11-07T07:44:41.864Z,4.10
2022-11-07T07:47:11.442Z,4.13
2022-11-07T07:49:38.834Z,3.37
2022-11-07T07:52:05.771Z,3.80
2022-11-07T07:54:32.474Z,3.93
2022-11-07T07:56:59.209Z,3.33
2022-11-07T07:59:25.940Z,3.53
2022-11-07T08:01:56.899Z,4.30
2022-11-07T08:04:24.213Z,4.50
2022-11-07T08:06:50.893Z,4.10
2022-11-07T08:09:17.670Z,4.30
2022-11-07T08:11:44.416Z,3.97
2022-11-07T08:14:11.756Z,4.40
2022-11-07T08:16:38.532Z,4.03
2022-11-07T08:19:05.270Z,5.07
2022-11-07T08:21:32.049Z,3.97
2022-11-07T08:23:58.804Z,4.43
2022-11-07T08:26:26.326Z,4.47
2022-11-07T08:28:54.101Z,5.10
2022-11-07T08:31:21.670Z,4.90
2022-11-07T08:33:48.452Z,4.97
2022-11-07T08:36:15.230Z,4.13
2022-11-07T08:38:41.976Z,4.97
2022-11-07T08:41:08.844Z,4.37
2022-11-07T08:43:35.506Z,3.90
2022-11-07T08:46:02.222Z,3.40
2022-11-07T08:48:28.930Z,3.80
2022-11-07T08:50:57.474Z,4.57
2022-11-07T08:53:26.080Z,3.33
2022-11-07T08:55:52.904Z,3.73
2022-11-07T08:58:20.088Z,3.00
2022-11-07T09:00:47.014Z,3.10
2022-11-07T09:06:01.010Z,3.17
2022-11-07T09:08:27.821Z,3.17
2022-11-07T09:10:54.537Z,3.37
2022-11-07T09:13:21.211Z,3.70
2022-11-07T09:15:51.575Z,3.43
2022-11-07T09:18:19.637Z,3.40
2022-11-07T09:20:46.541Z,3.80
2022-11-07T09:23:13.732Z,3.80
2022-11-07T09:25:40.643Z,3.83
2022-11-07T09:28:07.361Z,4.10
2022-11-07T09:30:34.387Z,2.77
2022-11-07T09:33:01.285Z,3.70
2022-11-07T09:35:28.110Z,2.93
2022-11-07T09:37:55.023Z,3.37
2022-11-07T09:40:24.205Z,3.30
2022-11-07T09:42:50.961Z,2.70
2022-11-07T09:45:17.711Z,3.80
2022-11-07T09:47:54.449Z,3.40
2022-11-07T09:50:40.872Z,3.00
2022-11-07T09:53:15.104Z,3.10
2022-11-07T09:55:58.795Z,3.80
2022-11-07T09:58:34.231Z,4.23
2022-11-07T10:01:06.068Z,3.67
2022-11-07T10:03:38.407Z,4.67
2022-11-07T10:06:24.476Z,3.67
2022-11-07T10:08:59.902Z,3.13
2022-11-07T10:11:46.821Z,3.50
2022-11-07T10:14:34.250Z,3.40
2022-11-07T10:17:25.274Z,3.23
2022-11-07T10:20:10.361Z,2.53
2022-11-07T10:22:45.856Z,3.80
2022-11-07T10:25:43.740Z,3.30
2022-11-07T10:28:19.150Z,3.40
2022-11-07T10:30:51.624Z,3.17
2022-11-07T10:33:26.939Z,3.43
2022-11-07T10:36:01.921Z,2.90
2022-11-07T10:38:31.083Z,3.10
2022-11-07T10:40:57.896Z,2.60
2022-11-07T10:43:39.378Z,2.40
2022-11-07T10:46:18.251Z,2.67
2022-11-07T10:48:59.781Z,3.20
2022-11-07T10:51:40.580Z,2.60
2022-11-07T10:54:20.667Z,2.50
2022-11-07T10:56:54.332Z,2.43
2022-11-07T10:59:30.204Z,2.23
2022-11-07T11:02:02.291Z,2.87
2022-11-07T11:04:32.551Z,2.27
2022-11-07T11:07:00.836Z,2.90
2022-11-07T11:09:33.025Z,3.10
2022-11-07T11:12:27.075Z,2.10
2022-11-07T11:15:09.870Z,2.63
2022-11-07T11:17:36.880Z,2.77
2022-11-07T11:20:05.290Z,2.60
2022-11-07T11:22:39.307Z,2.53
2022-11-07T11:25:11.659Z,2.90
2022-11-07T11:27:39.690Z,2.50
2022-11-07T11:30:17.660Z,2.50
2022-11-07T11:33:15.927Z,2.33
2022-11-07T11:36:02.486Z,2.20
2022-11-07T11:38:38.486Z,2.20
2022-11-07T11:41:10.902Z,2.10
2022-11-07T11:44:00.588Z,2.43
2022-11-07T11:46:40.375Z,2.30
2022-11-07T11:49:19.355Z,2.07
2022-11-07T11:51:51.528Z,2.30
2022-11-07T11:54:18.240Z,2.17
2022-11-07T11:56:48.071Z,2.10
2022-11-07T11:59:20.848Z,2.43
2022-11-07T12:02:24.955Z,2.07
2022-11-07T12:05:19.301Z,2.03
2022-11-07T12:08:23.348Z,3.00
2022-11-07T12:10:57.399Z,3.53
2022-11-07T12:13:32.933Z,3.40
2022-11-07T12:16:33.104Z,5.27
2022-11-07T12:19:22.878Z,3.70
2022-11-07T12:22:15.652Z,2.00
2022-11-07T12:24:56.571Z,1.80
2022-11-07T12:27:49.190Z,2.50
2022-11-07T12:30:22.176Z,2.20
2022-11-07T12:33:05.509Z,2.00
2022-11-07T12:35:40.113Z,1.60
2022-11-07T12:38:31.921Z,1.87
2022-11-07T12:41:20.341Z,6.73
2022-11-07T12:44:11.690Z,15.90
2022-11-07T12:46:56.584Z,3.50
2022-11-07T12:49:38.340Z,1.57
2022-11-07T12:52:24.152Z,1.53
2022-11-07T12:55:04.280Z,1.73
2022-11-07T12:57:34.555Z,2.30
2022-11-07T13:00:12.509Z,2.70
2022-11-07T13:02:45.187Z,2.23
2022-11-07T13:05:31.050Z,1.87
2022-11-07T13:08:04.920Z,1.60
2022-11-07T13:10:48.828Z,1.33
2022-11-07T13:13:32.126Z,1.60
2022-11-07T13:16:21.042Z,2.40
2022-11-07T13:18:47.941Z,1.50
2022-11-07T13:21:14.674Z,1.50
2022-11-07T13:23:41.690Z,1.80
2022-11-07T13:26:26.393Z,2.23
2022-11-07T13:28:58.163Z,1.63
2022-11-07T13:31:31.250Z,1.73
2022-11-07T13:34:19.775Z,2.10
2022-11-07T13:36:49.481Z,1.30
2022-11-07T13:39:17.357Z,1.73
2022-11-07T13:41:44.900Z,1.80
2022-11-07T13:44:28.913Z,2.40
2022-11-07T13:47:04.363Z,1.60
2022-11-07T13:49:44.025Z,1.57
2022-11-07T13:52:43.121Z,1.70
2022-11-07T13:55:22.234Z,1.87
2022-11-07T13:57:57.770Z,1.60
2022-11-07T14:00:24.999Z,1.80
2022-11-07T14:02:55.276Z,1.87
2022-11-07T14:05:25.179Z,1.97
2022-11-07T14:07:58.019Z,2.07
2022-11-07T14:10:29.540Z,1.80
2022-11-07T14:13:07.213Z,1.53
2022-11-07T14:15:35.781Z,1.60
2022-11-07T14:18:03.935Z,1.90
2022-11-07T14:20:30.731Z,1.83
2022-11-07T14:23:02.472Z,2.93
2022-11-07T14:25:37.941Z,2.47
2022-11-07T14:28:15.419Z,2.37
2022-11-07T14:30:42.867Z,1.90
2022-11-07T14:33:21.766Z,1.97
2022-11-07T14:35:51.392Z,2.10
2022-11-07T14:38:25.428Z,1.80
2022-11-07T14:40:55.635Z,1.83
2022-11-07T14:43:28.087Z,1.70
2022-11-07T14:46:18.138Z,2.00
2022-11-07T14:48:47.752Z,2.00
2022-11-07T14:51:17.205Z,2.20
2022-11-07T14:54:04.248Z,2.23
2022-11-07T14:56:35.630Z,1.90
2022-11-07T14:59:02.880Z,2.10
2022-11-07T15:01:33.119Z,2.17
2022-11-07T15:04:05.023Z,2.13
2022-11-07T15:06:34.815Z,1.97
2022-11-07T15:09:06.056Z,2.53
2022-11-07T15:11:34.115Z,1.97
2022-11-07T15:14:04.863Z,1.80
2022-11-07T15:16:45.906Z,1.83
2022-11-07T15:19:22.370Z,2.17
2022-11-07T15:21:54.769Z,2.07
2022-11-07T15:24:45.987Z,2.53
2022-11-07T15:27:19.039Z,2.70
2022-11-07T15:30:01.767Z,3.50
2022-11-07T15:32:36.963Z,3.23
2022-11-07T15:35:43.543Z,3.60
2022-11-07T15:38:02.405Z,3.17
2022-11-07T15:40:29.690Z,3.00
2022-11-07T15:42:56.674Z,2.83
2022-11-07T15:45:23.756Z,2.40
2022-11-07T15:47:51.550Z,2.03
2022-11-07T15:50:25.220Z,2.50
2022-11-07T15:52:53.472Z,2.10
2022-11-07T15:55:23.187Z,2.30
2022-11-07T15:57:52.252Z,2.40
2022-11-07T16:00:24.800Z,2.63
2022-11-07T16:02:52.571Z,2.33
2022-11-07T16:05:20.275Z,2.63
2022-11-07T16:07:47.564Z,2.40
2022-11-07T16:10:17.555Z,2.10
2022-11-07T16:12:44.965Z,2.40
2022-11-07T16:15:17.611Z,2.60
2022-11-07T16:17:44.817Z,2.37
2022-11-07T16:20:23.172Z,2.70
2022-11-07T16:22:51.653Z,2.27
2022-11-07T16:25:22.462Z,3.27
2022-11-07T16:27:54.898Z,2.50
2022-11-07T16:30:22.649Z,2.60
2022-11-07T16:32:51.446Z,2.30
2022-11-07T16:35:18.243Z,2.47
2022-11-07T16:37:44.951Z,2.83
2022-11-07T16:40:18.147Z,2.80
2022-11-07T16:42:45.667Z,3.17
2022-11-07T16:45:17.839Z,3.00
2022-11-07T16:47:45.052Z,3.03
2022-11-07T16:50:17.208Z,2.80
2022-11-07T16:52:43.931Z,3.17
2022-11-07T16:55:18.061Z,2.77
2022-11-07T16:57:45.719Z,4.07
2022-11-07T17:00:20.794Z,3.73
2022-11-07T17:02:48.232Z,3.70
2022-11-07T17:05:15.396Z,2.90
2022-11-07T17:07:42.384Z,3.30
2022-11-07T17:10:15.329Z,3.60
2022-11-07T17:12:42.400Z,3.30
2022-11-07T17:15:09.929Z,3.77
2022-11-07T17:17:36.674Z,4.20
2022-11-07T17:20:03.966Z,3.33
2022-11-07T17:22:30.706Z,3.87
2022-11-07T17:24:57.438Z,3.97
2022-11-07T17:27:25.979Z,4.07
2022-11-07T17:29:53.902Z,4.10
2022-11-07T17:32:21.332Z,3.50
2022-11-07T17:34:55.050Z,4.10
2022-11-07T17:37:35.844Z,3.40
2022-11-07T17:40:03.627Z,4.57
2022-11-07T17:42:36.634Z,4.43
2022-11-07T17:45:05.281Z,4.20
2022-11-07T17:47:34.479Z,4.30
2022-11-07T17:50:01.841Z,4.50
2022-11-07T17:52:30.461Z,4.30
2022-11-07T17:54:57.799Z,4.37
2022-11-07T17:57:24.593Z,4.50
2022-11-07T17:59:51.749Z,5.00
2022-11-07T18:02:20.165Z,4.80
2022-11-07T18:04:47.426Z,6.80
2022-11-07T18:07:14.446Z,6.07
2022-11-07T18:09:41.647Z,6.90
2022-11-07T18:12:09.330Z,7.40
2022-11-07T18:14:37.340Z,6.80
2022-11-07T18:17:05.078Z,7.33
2022-11-07T18:19:31.928Z,6.47
2022-11-07T18:21:59.424Z,6.90
2022-11-07T18:24:26.357Z,6.60
2022-11-07T18:26:54.095Z,6.30
2022-11-07T18:29:20.974Z,6.50
2022-11-07T18:31:49.796Z,6.57
2022-11-07T18:34:16.954Z,6.03
2022-11-07T18:36:47.205Z,6.93
2022-11-07T18:39:22.307Z,5.93
2022-11-07T18:41:50.872Z,6.33
2022-11-07T18:44:18.165Z,6.23
2022-11-07T18:46:45.661Z,5.80
2022-11-07T18:49:14.840Z,5.97
2022-11-07T18:51:42.857Z,5.93
2022-11-07T18:54:10.672Z,6.70
2022-11-07T18:56:37.499Z,6.50
2022-11-07T18:59:04.482Z,6.33
2022-11-07T19:01:35.992Z,7.17
2022-11-07T19:04:06.004Z,6.90
2022-11-07T19:06:34.044Z,6.73
2022-11-07T19:09:01.244Z,6.97
2022-11-07T19:11:30.456Z,6.63
2022-11-07T19:14:02.125Z,7.23
2022-11-07T19:16:30.577Z,7.90
2022-11-07T19:18:59.242Z,8.83
2022-11-07T19:21:26.469Z,8.50
2022-11-07T19:23:53.539Z,8.50
2022-11-07T19:26:21.013Z,7.80
2022-11-07T19:28:48.319Z,8.40
2022-11-07T19:31:16.012Z,6.90
2022-11-07T19:33:44.304Z,8.53
2022-11-07T19:36:20.274Z,7.73
2022-11-07T19:38:47.970Z,8.40
2022-11-07T19:41:16.699Z,8.00
2022-11-07T19:43:48.819Z,9.80
2022-11-07T19:46:21.334Z,7.30
2022-11-07T19:48:49.315Z,8.67
2022-11-07T19:51:21.568Z,8.83
2022-11-07T19:53:57.796Z,8.80
2022-11-07T19:56:27.506Z,8.30
2022-11-07T19:58:55.594Z,9.47
2022-11-07T20:01:28.644Z,9.30
2022-11-07T20:03:56.821Z,9.00
2022-11-07T20:06:27.716Z,9.20
2022-11-07T20:08:54.924Z,10.90
2022-11-07T20:11:24.537Z,11.40
2022-11-07T20:13:53.798Z,10.60
2022-11-07T20:16:22.706Z,11.80
2022-11-07T20:18:52.677Z,15.07
2022-11-07T20:21:22.665Z,15.07
2022-11-07T20:23:53.931Z,13.17
2022-11-07T20:26:23.541Z,12.67
2022-11-07T20:28:51.411Z,17.20
2022-11-07T20:31:22.556Z,12.00
2022-11-07T20:33:49.767Z,11.80
2022-11-07T20:36:17.827Z,11.77
2022-11-07T20:38:45.359Z,17.77
2022-11-07T20:41:14.169Z,13.50
2022-11-07T20:43:41.860Z,20.27
2022-11-07T20:46:12.504Z,20.47
2022-11-07T20:48:39.677Z,22.23
2022-11-07T20:51:20.151Z,23.07
2022-11-07T20:53:50.455Z,27.93
2022-11-07T20:56:21.932Z,14.80
2022-11-07T20:58:49.623Z,10.50
2022-11-07T21:01:22.231Z,10.90
2022-11-07T21:03:50.037Z,11.00
2022-11-07T21:06:18.292Z,9.53
2022-11-07T21:08:47.689Z,10.67
2022-11-07T21:11:16.445Z,9.93
2022-11-07T21:13:49.657Z,11.10
2022-11-07T21:16:20.600Z,10.37
2022-11-07T21:18:48.050Z,11.70
2022-11-07T21:21:19.010Z,11.03
2022-11-07T21:23:48.289Z,12.57
2022-11-07T21:26:32.005Z,11.60
2022-11-07T21:28:59.737Z,11.23
2022-11-07T21:31:29.709Z,12.93
2022-11-07T21:33:57.800Z,12.17
2022-11-07T21:36:27.579Z,11.40
2022-11-07T21:38:55.947Z,11.43
2022-11-07T21:41:23.754Z,11.90
2022-11-07T21:43:51.177Z,12.70
2022-11-07T21:46:25.924Z,11.40
2022-11-07T21:48:53.621Z,11.00
2022-11-07T21:51:26.485Z,9.70
2022-11-07T21:53:54.311Z,10.07
2022-11-07T21:56:29.858Z,9.63
2022-11-07T21:59:01.571Z,8.53
2022-11-07T22:01:29.633Z,10.57
2022-11-07T22:04:06.879Z,10.23
2022-11-07T22:06:37.481Z,9.30
2022-11-07T22:09:06.039Z,8.27
2022-11-07T22:11:33.270Z,9.07
2022-11-07T22:14:00.179Z,8.67
2022-11-07T22:16:27.047Z,8.20
2022-11-07T22:18:54.030Z,9.10
2022-11-07T22:21:23.267Z,8.00
2022-11-07T22:23:51.002Z,7.00
2022-11-07T22:26:22.757Z,7.47
2022-11-07T22:28:49.955Z,9.03
2022-11-07T22:31:20.435Z,8.70
2022-11-07T22:33:47.967Z,9.90
2022-11-07T22:36:15.267Z,8.30
2022-11-07T22:38:42.424Z,8.77
2022-11-07T22:41:14.896Z,8.20
2022-11-07T22:43:42.304Z,7.50
2022-11-07T22:46:12.630Z,8.63
2022-11-07T22:48:40.259Z,8.13
2022-11-07T22:51:15.619Z,8.40
2022-11-07T22:53:42.316Z,7.90
2022-11-07T22:56:10.553Z,8.27
2022-11-07T22:58:37.577Z,7.17
2022-11-07T23:01:05.191Z,8.27
2022-11-07T23:03:32.902Z,9.03
2022-11-07T23:06:04.278Z,8.30
2022-11-07T23:08:35.168Z,9.47
2022-11-07T23:11:43.455Z,8.23
2022-11-07T23:14:00.565Z,9.67
2022-11-07T23:16:36.691Z,9.80
2022-11-07T23:19:06.534Z,10.00
2022-11-07T23:21:33.894Z,10.10
2022-11-07T23:24:00.893Z,9.70
2022-11-07T23:26:35.531Z,9.90
2022-11-07T23:29:09.044Z,9.90
2022-11-07T23:31:38.175Z,10.20
2022-11-07T23:34:04.833Z,9.70
2022-11-07T23:36:31.646Z,9.07
2022-11-07T23:39:06.620Z,9.43
2022-11-07T23:41:33.969Z,10.17
2022-11-07T23:44:00.787Z,11.27
2022-11-07T23:46:46.168Z,10.77
2022-11-07T23:49:31.780Z,11.13
2022-11-07T23:51:58.571Z,11.00
2022-11-07T23:55:00.434Z,11.43
2022-11-07T23:57:27.177Z,11.93
